createdAt,value
2023-12-23T00:02:34.984Z,1.84
2023-12-23T00:07:37.450Z,1.82
2023-12-23T00:12:39.267Z,1.49
2023-12-23T00:17:41.145Z,1.58
2023-12-23T00:22:42.979Z,1.49
2023-12-23T00:27:44.661Z,1.57
2023-12-23T00:32:47.598Z,1.61
2023-12-23T00:37:49.695Z,1.71
2023-12-23T00:42:51.492Z,1.77
2023-12-23T00:47:53.468Z,2.00
2023-12-23T00:52:55.415Z,1.98
2023-12-23T00:57:57.148Z,1.91
2023-12-23T01:02:58.811Z,2.03
2023-12-23T01:08:00.517Z,2.04
2023-12-23T01:13:02.251Z,2.21
2023-12-23T01:18:04.198Z,2.02
2023-12-23T01:23:05.900Z,2.22
2023-12-23T01:28:09.488Z,2.34
2023-12-23T01:33:11.517Z,2.38
2023-12-23T01:38:13.249Z,2.28
2023-12-23T01:43:14.967Z,2.28
2023-12-23T01:48:16.905Z,2.44
2023-12-23T01:53:19.233Z,2.46
2023-12-23T01:58:24.102Z,2.59
2023-12-23T02:03:26.166Z,2.52
2023-12-23T02:08:28.158Z,2.39
2023-12-23T02:13:37.082Z,2.48
2023-12-23T02:18:39.946Z,2.17
2023-12-23T02:23:41.939Z,2.03
2023-12-23T02:28:44.440Z,2.01
2023-12-23T02:33:50.657Z,1.86
2023-12-23T02:38:52.812Z,2.06
2023-12-23T02:43:54.435Z,1.95
2023-12-23T02:48:56.138Z,1.90
2023-12-23T02:53:57.803Z,1.77
2023-12-23T02:58:59.796Z,1.61
2023-12-23T03:04:01.569Z,1.61
2023-12-23T03:09:04.386Z,1.61
2023-12-23T03:14:06.664Z,1.74
2023-12-23T03:19:10.267Z,1.71
2023-12-23T03:24:11.997Z,1.55
2023-12-23T03:29:13.679Z,1.72
2023-12-23T03:34:15.465Z,1.63
2023-12-23T03:39:17.091Z,1.69
2023-12-23T03:44:18.762Z,1.83
2023-12-23T03:49:20.475Z,1.79
2023-12-23T03:54:22.317Z,1.68
2023-12-23T03:59:24.078Z,1.88
2023-12-23T04:04:25.827Z,1.67
2023-12-23T04:09:27.702Z,1.82
2023-12-23T04:14:29.450Z,1.94
2023-12-23T04:19:31.232Z,1.85
2023-12-23T04:24:33.359Z,1.79
2023-12-23T04:29:35.142Z,1.81
2023-12-23T04:34:38.634Z,1.97
2023-12-23T04:39:40.496Z,1.88
2023-12-23T04:44:42.271Z,1.81
2023-12-23T04:49:44.020Z,1.93
2023-12-23T04:54:46.193Z,1.79
2023-12-23T04:59:47.957Z,1.88
2023-12-23T05:04:49.905Z,1.87
2023-12-23T05:09:51.570Z,1.90
2023-12-23T05:14:53.346Z,1.92
2023-12-23T05:19:56.516Z,2.02
2023-12-23T05:24:58.240Z,1.97
2023-12-23T05:30:00.598Z,1.89
2023-12-23T05:35:02.361Z,2.07
2023-12-23T05:40:05.989Z,2.16
2023-12-23T05:45:08.240Z,2.29
2023-12-23T05:50:11.504Z,2.16
2023-12-23T05:55:13.176Z,2.26
2023-12-23T06:00:15.484Z,2.21
2023-12-23T06:05:17.251Z,2.12
2023-12-23T06:10:19.017Z,1.89
2023-12-23T06:15:20.656Z,1.69
2023-12-23T06:20:22.406Z,1.41
2023-12-23T06:25:24.099Z,1.42
2023-12-23T06:30:25.784Z,1.34
2023-12-23T06:35:27.567Z,1.23
2023-12-23T06:40:32.070Z,1.25
2023-12-23T06:45:33.745Z,1.24
2023-12-23T06:50:35.405Z,1.16
2023-12-23T06:55:37.178Z,1.27
2023-12-23T07:00:38.868Z,1.22
2023-12-23T07:05:40.857Z,1.31
2023-12-23T07:10:42.724Z,1.34
2023-12-23T07:15:44.577Z,1.27
2023-12-23T07:20:47.360Z,1.31
2023-12-23T07:25:49.142Z,1.19
2023-12-23T07:30:50.862Z,1.17
2023-12-23T07:35:52.621Z,1.31
2023-12-23T07:40:55.362Z,1.24
2023-12-23T07:45:57.072Z,1.22
2023-12-23T07:50:59.019Z,1.15
2023-12-23T07:56:00.887Z,1.24
2023-12-23T08:01:02.631Z,1.27
2023-12-23T08:06:04.622Z,1.17
2023-12-23T08:11:06.468Z,1.22
2023-12-23T08:16:08.879Z,1.15
2023-12-23T08:21:10.561Z,1.19
2023-12-23T08:26:12.261Z,1.14
2023-12-23T08:31:14.250Z,1.26
2023-12-23T08:36:16.603Z,1.28
2023-12-23T08:41:31.620Z,1.09
2023-12-23T08:46:35.505Z,0.99
2023-12-23T08:51:39.356Z,0.98
2023-12-23T08:56:41.132Z,1.05
2023-12-23T09:01:44.976Z,1.09
2023-12-23T09:06:47.425Z,1.16
2023-12-23T09:11:49.229Z,1.24
2023-12-23T09:16:51.890Z,1.19
2023-12-23T09:21:53.726Z,1.24
2023-12-23T09:26:55.523Z,1.13
2023-12-23T09:31:57.351Z,1.21
2023-12-23T09:36:59.061Z,1.41
2023-12-23T09:42:00.884Z,1.27
2023-12-23T09:47:02.903Z,1.22
2023-12-23T09:52:05.100Z,1.22
2023-12-23T09:57:08.859Z,1.27
2023-12-23T10:02:10.727Z,1.44
2023-12-23T10:07:12.413Z,1.45
2023-12-23T10:12:14.028Z,1.45
2023-12-23T10:17:15.775Z,1.49
2023-12-23T10:22:17.520Z,1.50
2023-12-23T10:27:19.378Z,1.55
2023-12-23T10:32:29.182Z,1.68
2023-12-23T10:37:33.394Z,1.83
2023-12-23T10:42:36.370Z,1.85
2023-12-23T10:47:39.182Z,1.95
2023-12-23T10:52:42.956Z,1.83
2023-12-23T10:57:46.854Z,2.05
2023-12-23T11:02:50.902Z,2.13
2023-12-23T11:08:01.279Z,1.95
2023-12-23T11:13:36.206Z,2.12
2023-12-23T11:18:41.372Z,1.85
2023-12-23T11:23:43.168Z,1.72
2023-12-23T11:28:50.090Z,1.69
2023-12-23T11:33:53.080Z,1.61
2023-12-23T11:38:55.055Z,1.57
2023-12-23T11:43:57.914Z,1.63
2023-12-23T11:49:01.326Z,1.58
2023-12-23T11:54:03.269Z,1.50
2023-12-23T11:59:06.526Z,1.48
2023-12-23T12:04:09.710Z,1.38
2023-12-23T12:09:11.606Z,1.26
2023-12-23T12:14:13.340Z,1.11
2023-12-23T12:19:15.234Z,1.27
2023-12-23T12:24:18.524Z,1.21
2023-12-23T12:29:22.059Z,1.27
2023-12-23T12:34:25.068Z,1.01
2023-12-23T12:39:27.149Z,1.04
2023-12-23T12:44:28.890Z,1.16
2023-12-23T12:49:30.642Z,1.22
2023-12-23T12:54:32.456Z,0.96
2023-12-23T12:59:34.362Z,1.22
2023-12-23T13:04:38.683Z,1.30
2023-12-23T13:09:42.097Z,1.32
2023-12-23T13:14:43.809Z,1.19
2023-12-23T13:19:45.569Z,1.27
2023-12-23T13:24:47.292Z,1.31
2023-12-23T13:29:49.154Z,1.38
2023-12-23T13:34:50.940Z,1.41
2023-12-23T13:39:52.649Z,1.27
2023-12-23T13:44:54.353Z,1.23
2023-12-23T13:49:56.159Z,1.34
2023-12-23T13:54:57.922Z,1.38
2023-12-23T13:59:59.616Z,1.38
2023-12-23T14:05:01.352Z,1.35
2023-12-23T14:10:03.190Z,1.36
2023-12-23T14:15:05.437Z,1.49
2023-12-23T14:20:07.664Z,1.48
2023-12-23T14:25:09.753Z,1.55
2023-12-23T14:30:12.222Z,1.52
2023-12-23T14:35:14.168Z,1.42
2023-12-23T14:40:15.869Z,1.42
2023-12-23T14:45:18.259Z,1.34
2023-12-23T14:50:22.169Z,1.33
2023-12-23T14:55:23.881Z,1.34
2023-12-23T15:00:25.478Z,1.27
2023-12-23T15:05:27.290Z,1.42
2023-12-23T15:10:29.148Z,1.36
2023-12-23T15:15:31.369Z,1.24
2023-12-23T15:20:33.142Z,1.36
2023-12-23T15:25:34.900Z,1.37
2023-12-23T15:30:37.156Z,1.20
2023-12-23T15:35:38.867Z,1.25
2023-12-23T15:40:40.493Z,1.22
2023-12-23T15:45:42.185Z,1.21
2023-12-23T15:50:43.875Z,1.21
2023-12-23T15:55:45.612Z,1.27
2023-12-23T16:00:47.318Z,1.41
2023-12-23T16:05:49.133Z,1.41
2023-12-23T16:10:50.937Z,1.49
2023-12-23T16:15:52.639Z,1.48
2023-12-23T16:20:54.429Z,1.39
2023-12-23T16:25:56.318Z,1.59
2023-12-23T16:30:58.240Z,1.48
2023-12-23T16:36:00.187Z,1.49
2023-12-23T16:41:02.094Z,1.43
2023-12-23T16:46:03.903Z,1.44
2023-12-23T16:51:05.848Z,1.45
2023-12-23T16:56:07.837Z,1.41
2023-12-23T17:01:09.738Z,1.58
2023-12-23T17:06:12.108Z,1.42
2023-12-23T17:11:13.901Z,1.47
2023-12-23T17:16:15.637Z,1.32
2023-12-23T17:21:17.286Z,1.42
2023-12-23T17:26:18.938Z,1.46
2023-12-23T17:31:20.603Z,1.46
2023-12-23T17:36:23.224Z,1.50
2023-12-23T17:41:25.221Z,1.43
2023-12-23T17:46:28.417Z,1.52
2023-12-23T17:51:30.097Z,1.35
2023-12-23T17:56:31.954Z,1.47
2023-12-23T18:01:33.652Z,1.45
2023-12-23T18:06:35.303Z,1.41
2023-12-23T18:11:37.005Z,1.59
2023-12-23T18:16:38.794Z,1.64
2023-12-23T18:21:40.447Z,1.51
2023-12-23T18:26:43.529Z,1.46
2023-12-23T18:31:45.283Z,1.57
2023-12-23T18:36:47.092Z,1.60
2023-12-23T18:41:48.697Z,1.52
2023-12-23T18:46:50.482Z,1.65
2023-12-23T18:51:52.581Z,1.61
2023-12-23T18:56:54.204Z,1.68
2023-12-23T19:01:55.892Z,1.59
2023-12-23T19:06:57.955Z,1.67
2023-12-23T19:11:59.565Z,1.83
2023-12-23T19:17:01.253Z,1.88
2023-12-23T19:22:03.261Z,1.98
2023-12-23T19:27:04.992Z,1.96
2023-12-23T19:32:06.959Z,2.06
2023-12-23T19:37:08.687Z,2.19
2023-12-23T19:42:10.312Z,2.23
2023-12-23T19:47:12.058Z,2.14
2023-12-23T19:52:13.744Z,2.26
2023-12-23T19:57:16.370Z,2.32
2023-12-23T20:02:18.077Z,2.44
2023-12-23T20:07:19.764Z,2.49
2023-12-23T20:12:21.554Z,2.50
2023-12-23T20:17:23.325Z,2.46
2023-12-23T20:22:25.080Z,2.55
2023-12-23T20:27:26.778Z,2.67
2023-12-23T20:32:29.105Z,2.77
2023-12-23T20:37:30.778Z,2.88
2023-12-23T20:42:32.636Z,2.82
2023-12-23T20:47:34.621Z,2.99
2023-12-23T20:52:36.717Z,2.99
2023-12-23T20:57:38.390Z,3.11
2023-12-23T21:02:40.683Z,3.12
2023-12-23T21:07:42.695Z,3.00
2023-12-23T21:12:44.970Z,3.11
2023-12-23T21:17:46.761Z,3.15
2023-12-23T21:22:48.698Z,2.93
2023-12-23T21:27:50.445Z,3.13
2023-12-23T21:32:52.516Z,3.00
2023-12-23T21:37:54.432Z,3.07
2023-12-23T21:42:56.230Z,3.05
2023-12-23T21:47:58.060Z,3.08
2023-12-23T21:53:00.699Z,2.91
2023-12-23T21:58:02.367Z,2.91
2023-12-23T22:03:04.265Z,2.85
2023-12-23T22:08:06.317Z,2.77
2023-12-23T22:13:07.998Z,2.65
2023-12-23T22:18:10.050Z,2.79
2023-12-23T22:23:13.646Z,2.88
2023-12-23T22:28:15.723Z,3.02
2023-12-23T22:33:17.566Z,2.91
2023-12-23T22:38:19.261Z,2.64
2023-12-23T22:43:21.910Z,3.02
2023-12-23T22:48:24.013Z,2.97
2023-12-23T22:53:25.729Z,2.73
2023-12-23T22:58:27.380Z,2.80
2023-12-23T23:03:29.108Z,2.66
2023-12-23T23:08:30.878Z,3.02
2023-12-23T23:13:32.575Z,2.99
2023-12-23T23:18:34.649Z,2.82
2023-12-23T23:23:37.993Z,2.98
2023-12-23T23:28:39.678Z,2.93
2023-12-23T23:33:41.632Z,3.07
2023-12-23T23:38:43.665Z,2.94
2023-12-23T23:43:45.309Z,3.23
2023-12-23T23:48:47.012Z,3.32
2023-12-23T23:53:49.477Z,3.02
2023-12-23T23:58:51.148Z,4.44
